Time;durP1;ratioP1;P1;durP2;ratioP2;P2;SDS_P1;SDS_P2;PMS_P1;PMS_P2;Temp;Humidity;BMP_temperature;BMP_pressure;BME280_temperature;BME280_humidity;BME280_pressure;Samples;Min_cycle;Max_cycle;Signal;HPM_P1;HPM_P2
2021/07/28 00:01:21;;;;;;;0.47;0.47;;;25.40;41.30;;;;;;4163095;28;20032;-51
2021/07/28 00:03:23;;;;;;;1.55;0.70;;;25.10;41.40;;;;;;4160688;28;20119;-57
2021/07/28 00:05:25;;;;;;;0.73;0.63;;;24.80;41.80;;;;;;4163622;28;20369;-51
2021/07/28 00:07:28;;;;;;;1.17;0.70;;;24.50;42.20;;;;;;4162728;28;20032;-53
2021/07/28 00:09:30;;;;;;;1.00;0.63;;;24.30;42.60;;;;;;4163971;28;20052;-55
2021/07/28 00:11:32;;;;;;;1.25;0.80;;;24.00;42.90;;;;;;4163024;28;20365;-54
2021/07/28 00:13:34;;;;;;;1.45;0.60;;;23.80;43.10;;;;;;4158196;28;20036;-56
2021/07/28 00:15:37;;;;;;;2.00;0.60;;;23.60;43.20;;;;;;4160604;28;20064;-53
2021/07/28 00:17:47;;;;;;;2.15;0.60;;;23.50;43.20;;;;;;4160202;28;20040;-56
2021/07/28 00:20:03;;;;;;;0.40;0.40;;;23.30;43.70;;;;;;4158718;28;20189;-51
2021/07/28 00:24:30;;;;;;;1.33;0.70;;;23.10;43.90;;;;;;4163744;28;20087;-51
2021/07/28 00:26:32;;;;;;;0.45;0.45;;;23.00;44.10;;;;;;4161707;28;20036;-52
2021/07/28 00:28:34;;;;;;;0.95;0.80;;;22.90;44.20;;;;;;4162282;28;20477;-58
2021/07/28 00:30:36;;;;;;;1.65;0.70;;;22.80;44.30;;;;;;4164486;28;20040;-60
2021/07/28 00:32:38;;;;;;;0.63;0.55;;;22.70;44.30;;;;;;4160013;28;20618;-60
2021/07/28 00:34:41;;;;;;;3.70;0.80;;;22.60;44.30;;;;;;4163243;28;20043;-60
2021/07/28 00:36:43;;;;;;;0.95;0.68;;;22.50;44.20;;;;;;4162861;28;20032;-58
2021/07/28 00:38:45;;;;;;;0.63;0.50;;;22.40;44.20;;;;;;4164363;28;20595;-55
2021/07/28 00:40:47;;;;;;;0.88;0.70;;;22.30;44.20;;;;;;4162718;28;20033;-57
2021/07/28 00:42:49;;;;;;;0.80;0.57;;;22.20;44.50;;;;;;4157150;28;20064;-50
2021/07/28 00:44:52;;;;;;;2.25;0.63;;;22.10;44.50;;;;;;4161756;28;20139;-53
2021/07/28 00:46:54;;;;;;;4.50;0.90;;;22.10;44.60;;;;;;4162044;28;20413;-46
2021/07/28 00:48:56;;;;;;;2.15;0.93;;;22.00;44.70;;;;;;4159483;28;20029;-51
2021/07/28 00:50:58;;;;;;;2.33;0.80;;;22.00;45.20;;;;;;4159893;28;20157;-48
2021/07/28 00:53:02;;;;;;;2.17;0.73;;;21.90;45.20;;;;;;4161413;28;20047;-54
2021/07/28 00:55:06;;;;;;;4.63;0.95;;;21.90;45.30;;;;;;4160535;28;20465;-57
2021/07/28 00:57:09;;;;;;;2.65;0.93;;;21.80;45.40;;;;;;4163258;28;20193;-54
2021/07/28 00:59:11;;;;;;;1.00;0.65;;;21.80;45.40;;;;;;4165092;28;20202;-54
2021/07/28 01:01:14;;;;;;;0.57;0.47;;;21.80;45.30;;;;;;4161822;28;20398;-52
2021/07/28 01:03:16;;;;;;;2.08;0.77;;;21.70;45.40;;;;;;4162701;28;20052;-56
2021/07/28 01:05:18;;;;;;;1.67;0.77;;;21.70;45.60;;;;;;4164455;28;20071;-60
2021/07/28 01:07:20;;;;;;;3.70;0.70;;;21.60;45.20;;;;;;4160880;28;20036;-60
2021/07/28 01:09:22;;;;;;;0.55;0.55;;;21.60;45.20;;;;;;4161539;28;20415;-60
2021/07/28 01:11:26;;;;;;;4.78;0.80;;;21.60;45.20;;;;;;4156307;28;20033;-52
2021/07/28 01:13:31;;;;;;;3.83;0.70;;;21.60;45.60;;;;;;4163313;28;20044;-52
2021/07/28 01:15:54;;;;;;;1.92;0.75;;;21.60;46.00;;;;;;4161611;28;20051;-56
2021/07/28 01:17:55;;;;;;;1.10;0.70;;;21.60;45.90;;;;;;4161529;28;20075;-52
2021/07/28 01:20:05;;;;;;;0.95;0.60;;;21.60;46.00;;;;;;4163235;28;20036;-54
2021/07/28 01:22:07;;;;;;;1.83;0.65;;;21.60;46.10;;;;;;4161863;28;20054;-50
2021/07/28 01:24:11;;;;;;;2.50;0.60;;;21.50;46.20;;;;;;4161431;28;20415;-55
2021/07/28 01:26:14;;;;;;;1.17;0.65;;;21.50;46.20;;;;;;4160169;28;22259;-58
2021/07/28 01:28:17;;;;;;;0.50;0.50;;;;;;;;;;4161962;28;20052;-52
2021/07/28 01:30:19;;;;;;;0.55;0.45;;;21.50;46.20;;;;;;4164303;28;20044;-53
2021/07/28 01:32:21;;;;;;;0.60;0.60;;;21.50;46.20;;;;;;4158276;28;20487;-55
2021/07/28 01:34:24;;;;;;;1.42;0.65;;;21.50;46.40;;;;;;4160771;28;20032;-53
2021/07/28 01:36:26;;;;;;;1.30;0.65;;;21.50;46.50;;;;;;4160040;28;20040;-54
2021/07/28 01:38:29;;;;;;;1.23;1.00;;;21.50;46.60;;;;;;4160533;28;20036;-57
2021/07/28 01:40:35;;;;;;;1.42;0.60;;;21.50;46.60;;;;;;4158437;28;20462;-54
2021/07/28 01:42:45;;;;;;;1.02;0.45;;;21.40;46.60;;;;;;4159061;28;20067;-56
2021/07/28 01:44:47;;;;;;;0.60;0.60;;;21.40;46.60;;;;;;4157676;28;20033;-54
2021/07/28 01:46:49;;;;;;;1.98;1.00;;;21.40;46.80;;;;;;4159052;28;20070;-59
2021/07/28 01:48:51;;;;;;;0.60;0.60;;;21.40;46.50;;;;;;4161988;28;20548;-57
2021/07/28 01:50:54;;;;;;;1.05;0.93;;;21.40;46.00;;;;;;4160476;28;20402;-57
2021/07/28 01:53:00;;;;;;;;;;;21.40;46.70;;;;;;4161444;28;20028;-56
2021/07/28 01:55:03;;;;;;;1.25;0.70;;;21.40;46.80;;;;;;4160155;28;20033;-51
2021/07/28 01:57:05;;;;;;;1.92;0.60;;;21.40;46.80;;;;;;4158382;28;20108;-52
2021/07/28 01:59:07;;;;;;;0.90;0.75;;;21.40;46.90;;;;;;4161786;28;20377;-59
2021/07/28 02:01:09;;;;;;;2.08;0.68;;;21.40;47.00;;;;;;4161657;28;20116;-58
2021/07/28 02:03:11;;;;;;;0.40;0.40;;;21.40;47.00;;;;;;4162165;28;20564;-56
2021/07/28 02:05:14;;;;;;;0.75;0.40;;;21.40;47.20;;;;;;4163937;28;20051;-57
2021/07/28 02:07:16;;;;;;;1.02;0.60;;;21.40;47.20;;;;;;4160191;28;20147;-52
2021/07/28 02:09:18;;;;;;;2.03;0.40;;;21.40;47.20;;;;;;4163580;28;20383;-51
2021/07/28 02:11:20;;;;;;;0.88;0.55;;;21.40;47.30;;;;;;4160458;28;20476;-51
2021/07/28 02:13:23;;;;;;;0.85;0.70;;;21.40;47.40;;;;;;4161588;28;20071;-53
2021/07/28 02:15:25;;;;;;;0.60;0.60;;;21.40;47.50;;;;;;4160039;28;20029;-55
2021/07/28 02:17:28;;;;;;;1.90;0.70;;;21.40;47.50;;;;;;4158177;28;20044;-58
2021/07/28 02:19:30;;;;;;;0.47;0.47;;;21.40;47.50;;;;;;4155654;28;20277;-53
2021/07/28 02:21:33;;;;;;;0.98;0.50;;;21.40;47.70;;;;;;4161605;28;20036;-52
2021/07/28 02:23:35;;;;;;;0.52;0.50;;;21.40;47.60;;;;;;4164690;28;20059;-55
2021/07/28 02:25:37;;;;;;;0.60;0.57;;;21.40;47.60;;;;;;4166180;28;20040;-57
2021/07/28 02:27:40;;;;;;;0.52;0.52;;;21.40;47.90;;;;;;4164523;28;20032;-58
2021/07/28 02:29:42;;;;;;;1.37;0.70;;;21.50;47.70;;;;;;4167189;28;20135;-57
2021/07/28 02:31:44;;;;;;;0.73;0.47;;;21.50;47.60;;;;;;4166354;28;20274;-58
2021/07/28 02:33:46;;;;;;;1.38;0.60;;;21.50;47.70;;;;;;4165736;28;20036;-57
2021/07/28 02:35:48;;;;;;;0.57;0.52;;;21.50;47.80;;;;;;4163137;28;20409;-59
2021/07/28 02:37:50;;;;;;;1.13;0.47;;;21.50;47.80;;;;;;4165069;28;20040;-58
2021/07/28 02:39:52;;;;;;;0.68;0.65;;;21.50;47.70;;;;;;4165500;28;20124;-55
2021/07/28 02:41:54;;;;;;;1.73;0.52;;;21.50;47.80;;;;;;4162458;28;20045;-55
2021/07/28 02:43:56;;;;;;;0.90;0.52;;;21.50;47.70;;;;;;4166295;28;20222;-57
2021/07/28 02:45:58;;;;;;;1.00;0.70;;;21.50;47.70;;;;;;4162982;28;20036;-55
2021/07/28 02:48:04;;;;;;;1.02;0.55;;;21.50;47.80;;;;;;4165404;28;20560;-55
2021/07/28 02:50:07;;;;;;;1.77;0.70;;;21.50;47.70;;;;;;4163911;28;20055;-53
2021/07/28 02:52:09;;;;;;;0.63;0.50;;;21.50;47.80;;;;;;4164945;28;20107;-56
2021/07/28 02:54:11;;;;;;;1.52;0.63;;;21.50;47.70;;;;;;4165979;28;20315;-55
2021/07/28 02:56:13;;;;;;;0.52;0.43;;;21.60;47.80;;;;;;4163688;28;21671;-53
2021/07/28 02:58:15;;;;;;;0.55;0.55;;;21.60;47.70;;;;;;4166533;28;20033;-53
2021/07/28 03:00:18;;;;;;;0.45;0.40;;;21.60;47.80;;;;;;4163405;28;20029;-54
2021/07/28 03:02:20;;;;;;;4.75;0.68;;;21.60;47.80;;;;;;4165926;28;20531;-52
2021/07/28 03:04:22;;;;;;;1.58;0.57;;;21.60;47.80;;;;;;4164523;28;20029;-54
2021/07/28 03:06:24;;;;;;;0.80;0.55;;;21.60;48.50;;;;;;4164806;28;20456;-60
2021/07/28 03:08:26;;;;;;;0.60;0.57;;;21.60;48.50;;;;;;4167762;28;20032;-51
2021/07/28 03:10:28;;;;;;;0.73;0.50;;;21.70;48.60;;;;;;4163723;28;20043;-51
2021/07/28 03:12:30;;;;;;;0.77;0.60;;;21.70;48.50;;;;;;4165169;28;20108;-58
2021/07/28 03:14:33;;;;;;;0.68;0.68;;;21.70;48.50;;;;;;4166568;28;20041;-50
2021/07/28 03:16:35;;;;;;;2.20;1.00;;;21.70;48.20;;;;;;4167829;28;20040;-55
2021/07/28 03:18:37;;;;;;;1.02;0.60;;;21.70;48.40;;;;;;4162238;28;20786;-58
2021/07/28 03:20:39;;;;;;;1.60;0.60;;;21.80;48.20;;;;;;4165135;28;20083;-55
2021/07/28 03:22:41;;;;;;;1.20;0.80;;;21.80;48.20;;;;;;4163690;28;20213;-52
2021/07/28 03:24:43;;;;;;;1.08;0.55;;;21.80;48.50;;;;;;4165234;28;20025;-56
2021/07/28 03:26:46;;;;;;;1.35;0.73;;;21.80;48.50;;;;;;4162154;28;20032;-53
2021/07/28 03:28:48;;;;;;;1.02;0.60;;;21.90;48.70;;;;;;4162749;28;20560;-53
2021/07/28 03:30:50;;;;;;;1.67;0.63;;;21.90;48.70;;;;;;4163003;28;20366;-54
2021/07/28 03:32:52;;;;;;;1.13;0.60;;;21.90;48.50;;;;;;4162270;28;20977;-53
2021/07/28 03:34:54;;;;;;;2.60;0.77;;;22.00;48.50;;;;;;4161474;28;20455;-50
2021/07/28 03:36:56;;;;;;;1.08;0.60;;;22.00;48.20;;;;;;4161127;28;20032;-54
2021/07/28 03:38:58;;;;;;;1.65;0.88;;;22.10;48.20;;;;;;4162830;28;20537;-54
2021/07/28 03:41:00;;;;;;;0.93;0.68;;;22.10;48.00;;;;;;4164181;28;20036;-56
2021/07/28 03:43:03;;;;;;;1.33;0.70;;;22.10;47.90;;;;;;4163609;28;20151;-54
2021/07/28 03:45:05;;;;;;;1.08;0.70;;;22.10;48.00;;;;;;4160268;28;20025;-55
2021/07/28 03:47:07;;;;;;;1.15;0.68;;;22.20;47.80;;;;;;4162123;28;20462;-53
2021/07/28 03:49:10;;;;;;;1.05;0.80;;;22.20;47.80;;;;;;4164966;28;21457;-53
2021/07/28 03:51:12;;;;;;;0.50;0.50;;;22.30;47.70;;;;;;4165261;28;20441;-53
2021/07/28 03:53:14;;;;;;;0.95;0.70;;;22.30;47.80;;;;;;4162969;28;20047;-49
2021/07/28 03:55:16;;;;;;;0.70;0.60;;;22.30;47.90;;;;;;4166168;28;20128;-47
2021/07/28 03:57:19;;;;;;;2.72;0.90;;;22.40;47.80;;;;;;4161008;28;20033;-52
2021/07/28 03:59:21;;;;;;;0.57;0.57;;;22.40;47.60;;;;;;4167542;28;21053;-52
2021/07/28 04:01:24;;;;;;;1.00;0.60;;;22.40;47.80;;;;;;4161736;28;20045;-55
2021/07/28 04:03:26;;;;;;;1.30;0.60;;;22.50;47.60;;;;;;4162992;28;20047;-55
2021/07/28 04:05:28;;;;;;;1.02;0.68;;;22.50;47.50;;;;;;4161063;28;20058;-55
2021/07/28 04:07:30;;;;;;;0.82;0.65;;;22.60;47.50;;;;;;4164522;28;20045;-57
2021/07/28 04:09:32;;;;;;;2.50;0.47;;;22.60;47.30;;;;;;4160498;28;20572;-50
2021/07/28 04:11:34;;;;;;;0.70;0.70;;;22.70;47.50;;;;;;4165657;28;20093;-49
2021/07/28 04:13:36;;;;;;;2.50;0.73;;;22.70;47.30;;;;;;4162666;28;20024;-52
2021/07/28 04:15:38;;;;;;;1.48;0.50;;;22.80;47.10;;;;;;4159421;28;20551;-54
2021/07/28 04:17:40;;;;;;;0.95;0.52;;;22.80;47.00;;;;;;4161899;28;20021;-54
2021/07/28 04:19:49;;;;;;;2.10;0.60;;;22.90;47.00;;;;;;4163309;28;20041;-49
2021/07/28 04:21:51;;;;;;;3.88;0.63;;;22.90;46.90;;;;;;4163188;28;20583;-55
2021/07/28 04:23:53;;;;;;;0.73;0.52;;;23.00;47.00;;;;;;4165102;28;20432;-56
2021/07/28 04:25:57;;;;;;;0.90;0.55;;;23.10;46.90;;;;;;4162980;28;20060;-53
2021/07/28 04:28:01;;;;;;;0.40;0.40;;;23.10;46.80;;;;;;4167796;28;20603;-59
2021/07/28 04:30:05;;;;;;;1.05;0.50;;;23.10;46.80;;;;;;4162950;28;20032;-51
2021/07/28 04:32:08;;;;;;;2.22;0.50;;;23.10;46.80;;;;;;4162279;28;20700;-54
2021/07/28 04:34:10;;;;;;;0.93;0.60;;;23.10;46.80;;;;;;4166259;28;20047;-52
2021/07/28 04:36:15;;;;;;;0.90;0.57;;;23.10;46.60;;;;;;4169634;28;20040;-55
2021/07/28 04:38:19;;;;;;;0.50;0.50;;;23.00;46.60;;;;;;4164148;28;20266;-54
2021/07/28 04:40:23;;;;;;;0.60;0.60;;;23.00;46.80;;;;;;4165141;28;20036;-56
2021/07/28 04:42:26;;;;;;;0.55;0.45;;;23.00;46.70;;;;;;4164199;28;20113;-57
2021/07/28 04:44:31;;;;;;;0.80;0.57;;;23.00;46.70;;;;;;4162432;28;20151;-57
2021/07/28 04:46:34;;;;;;;1.35;0.60;;;23.00;46.70;;;;;;4165281;28;20055;-58
2021/07/28 04:48:38;;;;;;;0.40;0.40;;;23.00;46.80;;;;;;4166158;28;20439;-55
2021/07/28 04:50:40;;;;;;;1.80;0.50;;;22.90;46.70;;;;;;4165715;28;20040;-57
2021/07/28 04:52:43;;;;;;;1.35;0.60;;;22.90;46.70;;;;;;4165433;28;20133;-54
2021/07/28 04:54:45;;;;;;;0.45;0.40;;;22.90;46.90;;;;;;4164654;28;20060;-53
2021/07/28 04:56:49;;;;;;;2.07;0.80;;;22.90;46.80;;;;;;4165632;28;20035;-57
2021/07/28 04:58:53;;;;;;;0.57;0.50;;;22.90;46.80;;;;;;4166971;28;20031;-54
2021/07/28 05:00:56;;;;;;;2.22;0.55;;;22.90;46.70;;;;;;4167233;28;20037;-50
2021/07/28 05:02:59;;;;;;;2.33;0.80;;;22.90;46.80;;;;;;4166401;28;20052;-60
2021/07/28 05:05:01;;;;;;;1.00;0.57;;;22.90;46.70;;;;;;4162439;28;20454;-47
2021/07/28 05:07:03;;;;;;;4.35;0.77;;;22.80;46.60;;;;;;4163644;28;20217;-49
2021/07/28 05:09:06;;;;;;;0.77;0.50;;;22.90;46.60;;;;;;4165026;28;20132;-51
2021/07/28 05:11:09;;;;;;;0.85;0.52;;;22.80;46.50;;;;;;4164639;28;20020;-49
2021/07/28 05:13:11;;;;;;;;;;;22.80;46.50;;;;;;4163042;28;21069;-51
2021/07/28 05:15:15;;;;;;;2.08;0.70;;;22.80;46.50;;;;;;4168589;28;20026;-52
2021/07/28 05:17:20;;;;;;;0.55;0.55;;;22.70;46.50;;;;;;4164251;28;21483;-49
2021/07/28 05:19:22;;;;;;;0.50;0.50;;;22.70;46.60;;;;;;4165946;28;20406;-52
2021/07/28 05:21:26;;;;;;;0.77;0.60;;;22.70;46.50;;;;;;4163687;28;20059;-52
2021/07/28 05:23:29;;;;;;;0.80;0.70;;;22.70;46.50;;;;;;4166546;28;20394;-55
2021/07/28 05:25:31;;;;;;;0.43;0.43;;;22.60;46.50;;;;;;4163655;28;20033;-55
2021/07/28 05:27:33;;;;;;;1.42;0.65;;;22.60;46.50;;;;;;4162192;28;20495;-52
2021/07/28 05:29:36;;;;;;;0.90;0.50;;;22.60;46.60;;;;;;4160443;28;20037;-49
2021/07/28 05:31:38;;;;;;;0.50;0.50;;;22.60;46.60;;;;;;4162831;28;21457;-53
2021/07/28 05:33:40;;;;;;;1.08;0.68;;;22.60;46.60;;;;;;4162473;28;20256;-50
2021/07/28 05:35:48;;;;;;;0.70;0.60;;;22.50;46.60;;;;;;4161570;28;20047;-58
2021/07/28 05:37:56;;;;;;;0.77;0.50;;;22.50;46.60;;;;;;4154474;28;20461;-60
2021/07/28 05:39:58;;;;;;;1.60;0.80;;;22.50;46.90;;;;;;4158464;28;20072;-59
2021/07/28 05:42:01;;;;;;;0.73;0.70;;;22.50;46.70;;;;;;4156720;28;20497;-59
2021/07/28 05:44:09;;;;;;;1.08;0.70;;;22.50;46.80;;;;;;4162379;28;20534;-57
2021/07/28 05:46:11;;;;;;;2.75;0.80;;;22.50;47.00;;;;;;4161778;28;20032;-55
2021/07/28 05:48:13;;;;;;;2.20;0.40;;;22.50;46.90;;;;;;4163104;28;20106;-57
2021/07/28 05:50:16;;;;;;;0.82;0.50;;;22.40;47.00;;;;;;4161830;28;20127;-56
2021/07/28 05:52:18;;;;;;;1.55;0.85;;;22.40;47.10;;;;;;4165163;28;20028;-53
2021/07/28 05:54:21;;;;;;;1.23;0.60;;;22.40;47.80;;;;;;4162746;28;20498;-53
2021/07/28 05:56:23;;;;;;;1.63;0.60;;;22.40;48.60;;;;;;4162870;28;20313;-54
2021/07/28 05:58:25;;;;;;;1.50;0.60;;;22.40;47.90;;;;;;4164257;28;20032;-56
2021/07/28 06:00:30;;;;;;;1.13;0.60;;;22.40;47.90;;;;;;4161076;28;20037;-51
2021/07/28 06:02:32;;;;;;;0.57;0.57;;;22.50;47.90;;;;;;4163037;28;20060;-54
2021/07/28 06:04:34;;;;;;;1.85;0.68;;;22.40;47.80;;;;;;4162995;28;20037;-56
2021/07/28 06:06:36;;;;;;;1.25;0.40;;;22.50;47.70;;;;;;4163167;28;20409;-52
2021/07/28 06:08:38;;;;;;;0.63;0.57;;;22.50;47.70;;;;;;4161183;28;20055;-52
2021/07/28 06:10:40;;;;;;;0.40;0.38;;;22.50;47.70;;;;;;4164683;28;20656;-54
2021/07/28 06:12:43;;;;;;;1.27;0.57;;;22.50;47.70;;;;;;4163784;28;20031;-51
2021/07/28 06:14:45;;;;;;;0.80;0.47;;;22.50;47.70;;;;;;4164627;28;20070;-54
2021/07/28 06:16:48;;;;;;;0.70;0.70;;;22.50;47.70;;;;;;4164061;28;20029;-56
2021/07/28 06:18:50;;;;;;;1.02;0.98;;;22.50;47.70;;;;;;4162791;28;20464;-55
2021/07/28 06:20:52;;;;;;;1.25;0.60;;;22.50;47.60;;;;;;4162482;28;20053;-55
2021/07/28 06:22:54;;;;;;;0.73;0.60;;;22.50;47.60;;;;;;4162129;28;20109;-53
2021/07/28 06:24:56;;;;;;;1.10;0.50;;;22.50;47.60;;;;;;4163765;28;20025;-54
2021/07/28 06:26:58;;;;;;;0.70;0.70;;;22.50;48.00;;;;;;4164292;28;20062;-50
2021/07/28 06:29:01;;;;;;;0.95;0.60;;;22.50;47.50;;;;;;4161197;28;20039;-55
2021/07/28 06:31:03;;;;;;;0.63;0.63;;;22.50;47.40;;;;;;4163922;28;20094;-57
2021/07/28 06:33:05;;;;;;;0.60;0.60;;;22.50;47.20;;;;;;4162220;28;20028;-48
2021/07/28 06:35:07;;;;;;;0.50;0.45;;;22.50;47.90;;;;;;4151650;28;20162;-49
2021/07/28 06:37:09;;;;;;;1.23;0.63;;;22.50;47.20;;;;;;4162957;28;20603;-49
2021/07/28 06:39:12;;;;;;;1.83;0.63;;;22.50;47.20;;;;;;4163566;28;20032;-52
2021/07/28 06:41:14;;;;;;;0.63;0.60;;;22.50;47.20;;;;;;4162283;28;20542;-56
2021/07/28 06:43:16;;;;;;;0.50;0.50;;;22.50;47.20;;;;;;4160544;28;20501;-48
2021/07/28 06:45:18;;;;;;;0.60;0.60;;;22.50;47.20;;;;;;4162883;28;20036;-55
2021/07/28 06:47:20;;;;;;;0.90;0.55;;;22.50;47.20;;;;;;4164413;28;20474;-57
2021/07/28 06:49:22;;;;;;;0.85;0.80;;;22.50;47.20;;;;;;4158939;28;20124;-51
2021/07/28 06:51:24;;;;;;;0.50;0.50;;;22.50;47.20;;;;;;4162704;28;20035;-47
2021/07/28 06:53:27;;;;;;;0.47;0.47;;;22.50;47.30;;;;;;4162155;28;20028;-50
2021/07/28 06:55:29;;;;;;;2.87;0.50;;;22.50;47.40;;;;;;4163196;28;20498;-53
2021/07/28 06:57:31;;;;;;;1.45;0.63;;;22.50;47.30;;;;;;4163039;28;20257;-51
2021/07/28 06:59:33;;;;;;;0.82;0.57;;;22.50;47.20;;;;;;4159518;28;20051;-48
2021/07/28 07:01:35;;;;;;;0.50;0.50;;;22.50;47.30;;;;;;4162270;28;20114;-54
2021/07/28 07:03:38;;;;;;;1.00;0.75;;;22.50;47.30;;;;;;4159772;28;20079;-55
2021/07/28 07:05:41;;;;;;;3.08;0.50;;;22.50;47.40;;;;;;4159179;28;20259;-56
2021/07/28 07:07:43;;;;;;;0.63;0.55;;;22.50;47.50;;;;;;4163043;28;20113;-52
2021/07/28 07:09:45;;;;;;;0.45;0.43;;;22.50;47.40;;;;;;4162571;28;20108;-51
2021/07/28 07:11:47;;;;;;;0.82;0.50;;;22.40;47.40;;;;;;4165380;28;20035;-55
2021/07/28 07:13:50;;;;;;;0.55;0.55;;;22.50;47.40;;;;;;4162289;28;20050;-53
2021/07/28 07:15:52;;;;;;;0.60;0.60;;;22.50;47.40;;;;;;4162327;28;20037;-56
2021/07/28 07:17:54;;;;;;;0.93;0.60;;;22.50;47.50;;;;;;4161752;28;20385;-50
2021/07/28 07:19:56;;;;;;;2.13;0.80;;;22.50;47.50;;;;;;4164889;28;20831;-52
2021/07/28 07:21:58;;;;;;;0.55;0.55;;;22.50;47.50;;;;;;4163777;28;20029;-49
2021/07/28 07:24:00;;;;;;;0.40;0.40;;;22.50;47.50;;;;;;4163997;28;20036;-55
2021/07/28 07:26:02;;;;;;;0.85;0.50;;;22.50;47.50;;;;;;4164895;28;20116;-58
2021/07/28 07:28:05;;;;;;;0.90;0.90;;;22.50;47.60;;;;;;4165550;28;20040;-56
2021/07/28 07:30:08;;;;;;;1.63;1.08;;;22.50;47.20;;;;;;4162722;28;20036;-52
2021/07/28 07:32:10;;;;;;;;;;;22.40;46.90;;;;;;4165165;28;20047;-51
2021/07/28 07:34:12;;;;;;;1.63;1.00;;;22.40;46.70;;;;;;4160573;28;20509;-54
2021/07/28 07:36:17;;;;;;;0.82;0.77;;;22.40;46.70;;;;;;4162339;28;20401;-54
2021/07/28 07:38:19;;;;;;;2.08;1.40;;;22.40;46.70;;;;;;4161785;28;20382;-57
2021/07/28 07:40:21;;;;;;;1.92;0.93;;;22.40;46.70;;;;;;4161355;28;20107;-54
2021/07/28 07:42:23;;;;;;;1.02;0.90;;;22.30;46.70;;;;;;4160473;28;20048;-50
2021/07/28 07:44:25;;;;;;;2.35;0.93;;;22.30;46.70;;;;;;4162226;28;20490;-55
2021/07/28 07:46:28;;;;;;;4.93;1.35;;;22.30;46.70;;;;;;4160531;28;20469;-55
2021/07/28 07:48:30;;;;;;;1.35;1.20;;;22.30;46.70;;;;;;4159071;28;20037;-54
2021/07/28 07:50:35;;;;;;;1.20;1.10;;;22.30;46.60;;;;;;4161989;28;20102;-54
2021/07/28 07:52:38;;;;;;;1.15;1.05;;;22.30;46.60;;;;;;4160228;28;20025;-54
2021/07/28 07:54:40;;;;;;;2.63;1.25;;;22.20;46.60;;;;;;4166977;28;20033;-53
2021/07/28 07:56:42;;;;;;;10.45;1.23;;;22.20;46.60;;;;;;4164481;28;20045;-56
2021/07/28 07:58:44;;;;;;;3.78;1.38;;;22.20;46.60;;;;;;4163134;28;20035;-55
2021/07/28 08:00:46;;;;;;;3.22;1.40;;;22.30;46.40;;;;;;4163613;28;20017;-52
2021/07/28 08:02:48;;;;;;;3.72;1.38;;;22.60;46.30;;;;;;4163135;28;20059;-50
2021/07/28 08:04:50;;;;;;;3.22;1.17;;;23.10;45.80;;;;;;4162356;28;20054;-47
2021/07/28 08:06:52;;;;;;;1.65;1.23;;;23.70;44.90;;;;;;4166926;28;20123;-46
2021/07/28 08:08:54;;;;;;;2.28;1.15;;;24.20;44.20;;;;;;4163561;28;20044;-50
2021/07/28 08:10:57;;;;;;;2.33;1.10;;;24.80;43.50;;;;;;4165207;28;20134;-53
2021/07/28 08:12:59;;;;;;;1.58;0.90;;;25.30;42.70;;;;;;4157312;28;22243;-47
2021/07/28 08:15:02;;;;;;;2.65;1.08;;;25.70;42.10;;;;;;4160573;28;20457;-50
2021/07/28 08:17:04;;;;;;;;;;;26.10;41.70;;;;;;4161235;28;20052;-50
2021/07/28 08:19:06;;;;;;;3.22;1.27;;;26.50;41.40;;;;;;4158891;28;20003;-53
2021/07/28 08:21:09;;;;;;;4.18;1.00;;;26.70;40.90;;;;;;4158360;28;20545;-47
2021/07/28 08:23:13;;;;;;;2.10;0.98;;;27.10;40.50;;;;;;4161486;28;20489;-48
2021/07/28 08:25:16;;;;;;;2.33;1.10;;;27.40;40.30;;;;;;4160846;28;20729;-53
2021/07/28 08:27:18;;;;;;;1.15;0.98;;;27.60;40.10;;;;;;4161763;28;20165;-48
2021/07/28 08:29:20;;;;;;;1.88;0.90;;;27.70;40.10;;;;;;4157260;28;20611;-48
2021/07/28 08:31:22;;;;;;;2.35;1.10;;;27.40;40.10;;;;;;4156451;28;20564;-54
2021/07/28 08:33:26;;;;;;;1.33;0.80;;;27.10;40.10;;;;;;4159504;28;20059;-56
2021/07/28 08:35:28;;;;;;;1.25;0.70;;;26.80;40.70;;;;;;4157084;28;20040;-49
2021/07/28 08:37:30;;;;;;;3.05;0.95;;;26.60;41.20;;;;;;4160547;28;20591;-46
2021/07/28 08:39:32;;;;;;;2.05;0.80;;;26.40;41.40;;;;;;4158928;28;20812;-52
2021/07/28 08:41:37;;;;;;;0.87;0.70;;;26.10;41.30;;;;;;4161929;28;20074;-53
2021/07/28 08:43:40;;;;;;;1.67;0.95;;;26.00;41.60;;;;;;4158041;28;20512;-53
2021/07/28 08:45:48;;;;;;;0.70;0.65;;;25.80;41.70;;;;;;4159877;28;20094;-54
2021/07/28 08:47:50;;;;;;;1.50;0.90;;;25.70;41.70;;;;;;4161598;28;20064;-55
2021/07/28 08:49:52;;;;;;;2.17;0.80;;;25.50;41.80;;;;;;4157332;28;20036;-49
2021/07/28 08:51:55;;;;;;;2.53;0.90;;;25.40;42.10;;;;;;4156565;28;20047;-46
2021/07/28 08:53:57;;;;;;;2.97;1.08;;;25.30;42.00;;;;;;4160412;28;20448;-50
2021/07/28 08:56:02;;;;;;;1.83;0.80;;;25.20;42.00;;;;;;4159170;28;20644;-46
2021/07/28 08:58:04;;;;;;;1.98;0.82;;;25.10;42.30;;;;;;4160294;28;20554;-50
2021/07/28 09:00:09;;;;;;;1.38;0.88;;;25.10;42.40;;;;;;4158837;28;21310;-49
2021/07/28 09:02:11;;;;;;;1.20;0.77;;;25.00;42.80;;;;;;4156539;28;20068;-49
2021/07/28 09:04:13;;;;;;;1.33;0.82;;;24.90;42.50;;;;;;4161542;28;20839;-50
2021/07/28 09:06:31;;;;;;;1.10;0.90;;;24.80;42.50;;;;;;4160162;28;20122;-57
2021/07/28 09:08:35;;;;;;;2.42;1.05;;;24.70;42.80;;;;;;4161780;28;20039;-53
2021/07/28 09:10:37;;;;;;;1.52;0.95;;;24.70;42.90;;;;;;4159344;28;20028;-55
2021/07/28 09:12:44;;;;;;;2.13;1.23;;;24.60;43.10;;;;;;4157976;28;20032;-54
2021/07/28 09:14:57;;;;;;;1.05;0.80;;;24.50;42.90;;;;;;4156709;28;20191;-53
2021/07/28 09:17:15;;;;;;;1.02;0.73;;;24.40;42.90;;;;;;4161142;28;20047;-57
2021/07/28 09:19:46;;;;;;;2.00;1.20;;;24.40;43.70;;;;;;4155172;28;20492;-57
2021/07/28 09:21:49;;;;;;;3.28;1.20;;;24.30;43.10;;;;;;4161443;28;20028;-57
2021/07/28 09:24:12;;;;;;;1.80;1.30;;;24.30;43.30;;;;;;4159099;28;20460;-57
2021/07/28 09:26:33;;;;;;;3.28;1.20;;;24.20;43.20;;;;;;4157102;28;20100;-59
2021/07/28 09:28:35;;;;;;;2.30;0.93;;;24.20;43.10;;;;;;4160364;28;20044;-57
2021/07/28 09:30:38;;;;;;;4.67;1.30;;;24.10;43.20;;;;;;4160882;28;20517;-58
2021/07/28 09:33:03;;;;;;;1.45;0.80;;;24.10;43.30;;;;;;4156891;28;20452;-58
2021/07/28 09:35:06;;;;;;;10.20;1.02;;;24.00;43.60;;;;;;4157920;28;20035;-60
2021/07/28 09:37:13;;;;;;;2.83;1.00;;;24.00;43.60;;;;;;4158912;28;20044;-56
2021/07/28 09:39:35;;;;;;;3.92;1.25;;;24.00;43.70;;;;;;4157758;28;20053;-59
2021/07/28 09:41:41;;;;;;;2.10;1.10;;;24.00;44.10;;;;;;4159452;28;20845;-54
2021/07/28 09:43:53;;;;;;;1.83;0.90;;;23.90;44.00;;;;;;4157500;28;20937;-57
2021/07/28 09:45:55;;;;;;;1.73;0.82;;;23.90;43.90;;;;;;4159557;28;20119;-58
2021/07/28 09:47:57;;;;;;;0.83;0.83;;;23.80;44.00;;;;;;4159722;28;20036;-51
2021/07/28 09:50:02;;;;;;;2.80;1.00;;;23.80;43.80;;;;;;4156403;28;21303;-58
2021/07/28 09:52:18;;;;;;;1.30;0.80;;;23.80;44.00;;;;;;4160728;28;20656;-54
2021/07/28 09:54:20;;;;;;;1.98;1.08;;;23.70;44.10;;;;;;4153861;28;20040;-56
2021/07/28 09:56:29;;;;;;;2.05;0.82;;;23.70;44.10;;;;;;4159656;28;21270;-59
2021/07/28 09:58:31;;;;;;;1.00;0.77;;;23.70;44.40;;;;;;4157838;28;20028;-56
2021/07/28 10:00:34;;;;;;;1.17;0.97;;;23.60;44.60;;;;;;4157867;28;20508;-55
2021/07/28 10:02:37;;;;;;;0.90;0.80;;;23.60;44.70;;;;;;4158125;28;20295;-57
2021/07/28 10:04:45;;;;;;;0.85;0.70;;;23.60;44.90;;;;;;4158821;28;20226;-58
2021/07/28 10:06:49;;;;;;;2.08;1.10;;;23.50;44.80;;;;;;4160073;28;20119;-58
2021/07/28 10:08:54;;;;;;;1.30;0.75;;;23.50;44.70;;;;;;4156769;28;20024;-57
2021/07/28 10:10:57;;;;;;;3.33;0.80;;;23.50;44.70;;;;;;4160089;28;20146;-56
2021/07/28 10:13:00;;;;;;;1.13;0.80;;;23.50;44.90;;;;;;4158553;28;20033;-58
2021/07/28 10:15:07;;;;;;;1.63;0.70;;;23.40;44.90;;;;;;4158994;28;20063;-57
2021/07/28 10:17:12;;;;;;;0.68;0.68;;;23.40;44.70;;;;;;4154579;28;20116;-59
2021/07/28 10:19:16;;;;;;;1.13;0.68;;;23.40;45.00;;;;;;4160218;28;20115;-60
2021/07/28 10:21:19;;;;;;;1.98;0.70;;;23.30;44.90;;;;;;4160020;28;20560;-57
2021/07/28 10:23:21;;;;;;;2.20;0.70;;;23.30;45.00;;;;;;4158655;28;20048;-57
2021/07/28 10:25:23;;;;;;;2.17;0.70;;;23.30;44.90;;;;;;4156628;28;20043;-53
2021/07/28 10:27:26;;;;;;;2.13;0.90;;;23.30;45.00;;;;;;4157374;28;20178;-52
2021/07/28 10:29:29;;;;;;;1.00;0.80;;;23.20;45.20;;;;;;4154788;28;20033;-54
2021/07/28 10:31:44;;;;;;;2.25;0.80;;;23.20;45.40;;;;;;4157346;28;20033;-46
2021/07/28 10:33:57;;;;;;;0.80;0.80;;;23.20;45.50;;;;;;4161897;28;20040;-46
2021/07/28 10:35:59;;;;;;;0.83;0.80;;;23.20;45.50;;;;;;4159989;28;20092;-52
2021/07/28 10:38:18;;;;;;;1.83;0.75;;;23.20;45.60;;;;;;4158932;28;20078;-50
2021/07/28 10:40:26;;;;;;;0.57;0.57;;;23.10;45.60;;;;;;4156450;28;20532;-48
2021/07/28 10:42:32;;;;;;;2.42;0.60;;;23.10;45.60;;;;;;4161435;28;20477;-59
2021/07/28 10:45:11;;;;;;;6.63;0.98;;;23.10;45.50;;;;;;4154394;28;20353;-58
2021/07/28 10:47:16;;;;;;;2.83;0.82;;;23.10;45.60;;;;;;4163107;28;20028;-59